createdAt,value
2018-01-30T00:01:52.421Z,9.02
2018-01-30T00:04:24.785Z,8.97
2018-01-30T00:06:56.864Z,8.96
2018-01-30T00:09:27.263Z,9.02
2018-01-30T00:11:57.706Z,9.01
2018-01-30T00:14:28.676Z,8.97
2018-01-30T00:16:59.369Z,9.08
2018-01-30T00:19:30.316Z,9.07
2018-01-30T00:22:01.071Z,9.04
2018-01-30T00:24:32.777Z,9.09
2018-01-30T00:27:03.974Z,9.14
2018-01-30T00:29:34.116Z,9.20
2018-01-30T00:34:30.131Z,9.10
2018-01-30T00:37:03.706Z,9.13
2018-01-30T00:39:42.075Z,9.03
2018-01-30T00:42:15.108Z,8.97
2018-01-30T00:44:46.203Z,9.04
2018-01-30T00:47:18.136Z,8.96
2018-01-30T00:50:01.535Z,9.09
2018-01-30T00:52:31.906Z,9.17
2018-01-30T00:55:03.526Z,9.18
2018-01-30T00:57:33.870Z,9.21
2018-01-30T01:00:07.990Z,9.18
2018-01-30T01:02:38.786Z,9.05
2018-01-30T01:05:12.030Z,8.96
2018-01-30T01:07:44.833Z,8.88
2018-01-30T01:10:15.571Z,8.94
2018-01-30T01:12:45.928Z,9.00
2018-01-30T01:15:38.342Z,8.95
2018-01-30T01:18:08.745Z,8.89
2018-01-30T01:20:39.620Z,8.87
2018-01-30T01:23:10.392Z,8.87
2018-01-30T01:25:43.503Z,8.79
2018-01-30T01:28:15.540Z,8.75
2018-01-30T01:30:46.542Z,8.64
2018-01-30T01:33:17.025Z,8.60
2018-01-30T01:35:50.510Z,8.78
2018-01-30T01:38:21.429Z,8.92
2018-01-30T01:40:51.836Z,8.89
2018-01-30T01:43:22.176Z,8.90
2018-01-30T01:45:52.947Z,8.76
2018-01-30T01:48:34.238Z,8.62
2018-01-30T01:51:04.747Z,8.68
2018-01-30T01:53:35.620Z,8.69
2018-01-30T01:56:06.728Z,8.73
2018-01-30T01:58:37.070Z,8.87
2018-01-30T02:01:07.513Z,8.83
2018-01-30T02:03:38.394Z,8.81
2018-01-30T02:06:08.615Z,8.76
2018-01-30T02:08:38.918Z,8.76
2018-01-30T02:11:09.560Z,8.74
2018-01-30T02:13:39.756Z,8.75
2018-01-30T02:16:10.170Z,8.90
2018-01-30T02:18:40.497Z,8.95
2018-01-30T02:21:10.930Z,8.90
2018-01-30T02:23:41.168Z,8.91
2018-01-30T02:26:12.002Z,8.83
2018-01-30T02:28:42.344Z,8.84
2018-01-30T02:31:12.865Z,8.74
2018-01-30T02:33:43.711Z,8.75
2018-01-30T02:36:14.148Z,8.69
2018-01-30T02:38:44.539Z,8.67
2018-01-30T02:41:14.934Z,8.59
2018-01-30T02:43:45.091Z,8.60
2018-01-30T02:46:15.698Z,8.54
2018-01-30T02:48:45.931Z,8.50
2018-01-30T02:51:16.944Z,8.40
2018-01-30T02:53:47.271Z,8.41
2018-01-30T02:56:18.086Z,8.37
2018-01-30T02:58:48.724Z,8.37
2018-01-30T03:01:19.273Z,8.27
2018-01-30T03:03:49.487Z,8.30
2018-01-30T03:06:20.460Z,8.21
2018-01-30T03:08:51.209Z,8.11
2018-01-30T03:11:21.573Z,8.03
2018-01-30T03:13:52.241Z,8.03
2018-01-30T03:16:22.779Z,8.02
2018-01-30T03:18:53.056Z,8.04
2018-01-30T03:21:23.707Z,8.13
2018-01-30T03:23:53.980Z,8.09
2018-01-30T03:26:24.365Z,8.07
2018-01-30T03:28:54.719Z,8.06
2018-01-30T03:31:25.308Z,8.12
2018-01-30T03:33:55.594Z,8.15
2018-01-30T03:36:26.279Z,8.14
2018-01-30T03:38:56.610Z,8.10
2018-01-30T03:41:26.935Z,8.13
2018-01-30T03:43:57.532Z,8.11
2018-01-30T03:46:28.473Z,8.19
2018-01-30T03:48:58.820Z,8.18
2018-01-30T03:51:29.063Z,8.17
2018-01-30T03:53:59.494Z,8.11
2018-01-30T03:56:30.494Z,8.09
2018-01-30T03:59:01.696Z,8.05
2018-01-30T04:01:32.451Z,8.01
2018-01-30T04:04:02.812Z,7.94
2018-01-30T04:06:33.781Z,7.92
2018-01-30T04:09:05.098Z,8.05
2018-01-30T04:11:35.985Z,8.09
2018-01-30T04:14:06.487Z,8.06
2018-01-30T04:16:37.653Z,8.16
2018-01-30T04:19:08.620Z,8.12
2018-01-30T04:21:38.887Z,8.15
2018-01-30T04:24:09.181Z,8.25
2018-01-30T04:26:39.590Z,8.31
2018-01-30T04:29:10.363Z,8.40
2018-01-30T04:31:42.769Z,8.33
2018-01-30T04:34:13.205Z,8.26
2018-01-30T04:36:44.789Z,8.28
2018-01-30T04:39:15.863Z,8.10
2018-01-30T04:41:46.549Z,8.11
2018-01-30T04:46:41.614Z,7.99
2018-01-30T04:49:12.017Z,8.04
2018-01-30T04:51:42.466Z,7.97
2018-01-30T04:54:12.925Z,7.98
2018-01-30T04:56:43.643Z,7.98
2018-01-30T04:59:13.894Z,7.94
2018-01-30T05:01:45.128Z,8.00
2018-01-30T05:04:15.880Z,7.79
2018-01-30T05:06:46.322Z,7.75
2018-01-30T05:09:16.667Z,7.89
2018-01-30T05:11:47.446Z,7.93
2018-01-30T05:14:17.764Z,7.83
2018-01-30T05:16:48.810Z,7.84
2018-01-30T05:19:19.610Z,7.71
2018-01-30T05:21:49.953Z,7.65
2018-01-30T05:24:20.339Z,7.70
2018-01-30T05:26:51.199Z,7.82
2018-01-30T05:29:21.454Z,7.76
2018-01-30T05:31:52.056Z,7.53
2018-01-30T05:34:23.177Z,7.62
2018-01-30T05:37:11.166Z,7.53
2018-01-30T05:39:41.479Z,7.62
2018-01-30T05:44:47.844Z,7.60
2018-01-30T05:47:23.115Z,7.72
2018-01-30T05:49:55.923Z,7.69
2018-01-30T05:52:26.584Z,7.60
2018-01-30T05:54:59.629Z,7.46
2018-01-30T05:57:30.120Z,7.58
2018-01-30T06:00:06.582Z,7.61
2018-01-30T06:02:38.702Z,7.62
2018-01-30T06:05:09.055Z,7.39
2018-01-30T06:07:40.220Z,7.13
2018-01-30T06:10:10.824Z,6.58
2018-01-30T06:12:42.433Z,7.02
2018-01-30T06:15:15.998Z,7.29
2018-01-30T06:17:46.551Z,7.22
2018-01-30T06:20:17.219Z,7.20
2018-01-30T06:22:47.831Z,7.27
2018-01-30T06:25:19.216Z,7.36
2018-01-30T06:27:54.083Z,7.51
2018-01-30T06:30:25.334Z,7.53
2018-01-30T06:32:55.663Z,7.49
2018-01-30T06:35:27.184Z,7.43
2018-01-30T06:37:58.527Z,7.62
2018-01-30T06:40:30.469Z,7.57
2018-01-30T06:43:01.436Z,7.78
2018-01-30T06:45:34.044Z,7.63
2018-01-30T06:48:05.150Z,7.62
2018-01-30T06:50:36.690Z,7.63
2018-01-30T06:53:07.595Z,7.72
2018-01-30T06:55:44.172Z,7.52
2018-01-30T06:58:14.746Z,7.63
2018-01-30T07:00:47.576Z,7.77
2018-01-30T07:03:17.882Z,7.57
2018-01-30T07:05:48.768Z,7.71
2018-01-30T07:08:19.095Z,7.54
2018-01-30T07:10:56.103Z,7.56
2018-01-30T07:13:28.389Z,7.70
2018-01-30T07:16:00.409Z,7.74
2018-01-30T07:18:30.869Z,7.72
2018-01-30T07:21:02.085Z,7.26
2018-01-30T07:23:32.758Z,7.20
2018-01-30T07:26:04.236Z,7.42
2018-01-30T07:28:36.251Z,7.58
2018-01-30T07:31:06.829Z,7.44
2018-01-30T07:33:39.854Z,7.59
2018-01-30T07:36:10.625Z,7.82
2018-01-30T07:38:42.200Z,7.10
2018-01-30T07:41:13.424Z,7.45
2018-01-30T07:43:43.727Z,7.69
2018-01-30T07:46:14.919Z,7.50
2018-01-30T07:48:45.229Z,7.78
2018-01-30T07:51:21.309Z,7.52
2018-01-30T07:53:56.600Z,7.41
2018-01-30T07:56:27.222Z,7.06
2018-01-30T07:58:58.282Z,7.30
2018-01-30T08:01:38.747Z,7.02
2018-01-30T08:04:10.551Z,6.77
2018-01-30T08:06:45.612Z,6.87
2018-01-30T08:09:18.296Z,6.78
2018-01-30T08:11:51.498Z,7.00
2018-01-30T08:14:22.712Z,7.14
2018-01-30T08:16:54.285Z,7.30
2018-01-30T08:19:26.489Z,7.41
2018-01-30T08:21:56.893Z,7.77
2018-01-30T08:24:27.469Z,7.27
2018-01-30T08:26:58.672Z,7.15
2018-01-30T08:30:00.283Z,7.59
2018-01-30T08:32:42.999Z,7.68
2018-01-30T08:35:14.721Z,7.71
2018-01-30T08:37:46.599Z,7.93
2018-01-30T08:40:18.718Z,8.21
2018-01-30T08:42:49.486Z,8.18
2018-01-30T08:45:21.641Z,8.44
2018-01-30T08:47:52.965Z,8.54
2018-01-30T08:50:27.295Z,8.19
2018-01-30T08:52:58.541Z,8.54
2018-01-30T08:55:29.044Z,8.20
2018-01-30T08:57:59.690Z,8.56
2018-01-30T09:00:30.347Z,8.89
2018-01-30T09:03:01.339Z,8.40
2018-01-30T09:05:33.632Z,8.34
2018-01-30T09:08:11.452Z,8.41
2018-01-30T09:10:42.844Z,8.34
2018-01-30T09:13:13.690Z,8.72
2018-01-30T09:15:45.297Z,8.80
2018-01-30T09:18:15.654Z,8.97
2018-01-30T09:20:48.439Z,8.69
2018-01-30T09:23:18.853Z,8.66
2018-01-30T09:25:49.243Z,9.01
2018-01-30T09:28:21.270Z,8.66
2018-01-30T09:30:52.458Z,9.01
2018-01-30T09:33:23.175Z,8.96
2018-01-30T09:35:53.807Z,8.93
2018-01-30T09:38:27.058Z,8.91
2018-01-30T09:40:58.255Z,8.67
2018-01-30T09:43:28.680Z,8.64
2018-01-30T09:46:00.198Z,8.26
2018-01-30T09:48:31.498Z,8.46
2018-01-30T09:51:02.168Z,8.55
2018-01-30T09:53:32.851Z,8.65
2018-01-30T09:56:04.791Z,8.81
2018-01-30T09:58:35.881Z,8.93
2018-01-30T10:01:07.522Z,8.96
2018-01-30T10:03:41.100Z,9.18
2018-01-30T10:06:13.699Z,9.46
2018-01-30T10:08:44.875Z,9.75
2018-01-30T10:11:15.849Z,9.59
2018-01-30T10:13:47.613Z,9.52
2018-01-30T10:16:20.494Z,9.59
2018-01-30T10:18:50.663Z,9.50
2018-01-30T10:21:21.074Z,9.84
2018-01-30T10:23:53.508Z,10.13
2018-01-30T10:26:24.592Z,10.33
2018-01-30T10:28:55.344Z,10.28
2018-01-30T10:31:27.375Z,11.04
2018-01-30T10:33:57.931Z,13.22
2018-01-30T10:36:28.999Z,13.66
2018-01-30T10:39:01.967Z,14.02
2018-01-30T10:41:32.712Z,13.94
2018-01-30T10:44:03.290Z,12.99
2018-01-30T10:46:34.213Z,12.65
2018-01-30T10:49:04.692Z,12.34
2018-01-30T10:51:35.171Z,12.38
2018-01-30T10:54:06.827Z,12.67
2018-01-30T10:56:38.701Z,12.50
2018-01-30T10:59:11.860Z,12.52
2018-01-30T11:01:47.045Z,12.46
2018-01-30T11:04:22.207Z,12.14
2018-01-30T11:06:55.536Z,11.96
2018-01-30T11:09:28.087Z,11.91
2018-01-30T11:12:03.057Z,12.03
2018-01-30T11:14:33.682Z,12.04
2018-01-30T11:17:06.167Z,11.69
2018-01-30T11:19:39.495Z,11.76
2018-01-30T11:22:13.817Z,11.65
2018-01-30T11:24:48.724Z,11.86
2018-01-30T11:27:20.742Z,12.42
2018-01-30T11:29:55.516Z,12.89
2018-01-30T11:32:29.228Z,13.38
2018-01-30T11:35:00.521Z,13.46
2018-01-30T11:37:31.258Z,13.16
2018-01-30T11:40:03.090Z,13.07
2018-01-30T11:42:34.894Z,13.40
2018-01-30T11:45:09.465Z,13.03
2018-01-30T11:47:58.037Z,12.97
2018-01-30T11:50:34.195Z,12.04
2018-01-30T11:53:10.152Z,11.68
2018-01-30T11:55:43.845Z,11.44
2018-01-30T11:58:16.421Z,11.04
2018-01-30T12:00:48.603Z,11.08
2018-01-30T12:03:21.434Z,10.98
2018-01-30T12:05:53.128Z,11.36
2018-01-30T12:08:26.101Z,11.29
2018-01-30T12:10:57.783Z,11.48
2018-01-30T12:13:30.946Z,11.28
2018-01-30T12:16:03.481Z,11.03
2018-01-30T12:18:39.808Z,10.99
2018-01-30T12:21:10.548Z,11.15
2018-01-30T12:23:42.537Z,11.10
2018-01-30T12:26:16.731Z,10.98
2018-01-30T12:28:47.968Z,10.89
2018-01-30T12:31:19.548Z,10.69
2018-01-30T12:33:53.203Z,10.89
2018-01-30T12:36:31.159Z,10.76
2018-01-30T12:39:02.082Z,10.91
2018-01-30T12:41:33.647Z,10.68
2018-01-30T12:44:05.615Z,10.78
2018-01-30T12:46:36.437Z,11.10
2018-01-30T12:49:07.083Z,11.40
2018-01-30T12:51:37.581Z,11.58
2018-01-30T12:54:08.101Z,11.75
2018-01-30T12:56:38.987Z,12.21
2018-01-30T12:59:10.515Z,12.74
2018-01-30T13:01:41.648Z,12.78
2018-01-30T13:04:12.512Z,12.71
2018-01-30T13:06:44.554Z,12.71
2018-01-30T13:09:16.530Z,12.44
2018-01-30T13:11:47.383Z,12.61
2018-01-30T13:14:18.447Z,11.95
2018-01-30T13:16:50.893Z,11.51
2018-01-30T13:19:40.246Z,11.48
2018-01-30T13:22:13.321Z,11.37
2018-01-30T13:24:44.914Z,11.28
2018-01-30T13:27:15.955Z,11.32
2018-01-30T13:30:15.599Z,11.45
2018-01-30T13:35:50.986Z,11.31
2018-01-30T13:38:22.004Z,11.43
2018-01-30T13:40:54.122Z,11.40
2018-01-30T13:43:25.082Z,11.39
2018-01-30T13:45:56.185Z,11.53
2018-01-30T13:48:28.628Z,11.68
2018-01-30T13:51:00.761Z,11.67
2018-01-30T13:53:34.127Z,11.51
2018-01-30T13:56:24.561Z,11.51
2018-01-30T13:59:25.693Z,11.34
2018-01-30T14:01:58.928Z,11.54
2018-01-30T14:04:31.573Z,11.66
2018-01-30T14:07:10.416Z,11.41
2018-01-30T14:09:43.141Z,11.55
2018-01-30T14:12:19.317Z,11.75
2018-01-30T14:14:53.013Z,11.63
2018-01-30T14:17:24.914Z,11.55
2018-01-30T14:19:55.669Z,11.23
2018-01-30T14:22:26.542Z,11.32
2018-01-30T14:24:58.094Z,11.19
2018-01-30T14:27:30.983Z,11.33
2018-01-30T14:32:56.415Z,11.46
2018-01-30T14:35:27.405Z,11.44
2018-01-30T14:38:01.494Z,11.53
2018-01-30T14:40:33.570Z,11.33
2018-01-30T14:43:05.563Z,11.48
2018-01-30T14:45:36.926Z,11.54
2018-01-30T14:48:08.860Z,11.80
2018-01-30T14:50:40.162Z,11.72
2018-01-30T14:53:24.284Z,11.70
2018-01-30T14:55:56.725Z,11.28
2018-01-30T14:58:46.338Z,11.40
2018-01-30T15:01:44.622Z,11.43
2018-01-30T15:04:15.582Z,11.34
2018-01-30T15:06:51.062Z,11.41
2018-01-30T15:09:22.119Z,11.47
2018-01-30T15:11:53.705Z,11.38
2018-01-30T15:14:26.626Z,11.26
2018-01-30T15:16:58.442Z,11.38
2018-01-30T15:19:29.959Z,11.35
2018-01-30T15:22:01.979Z,11.42
2018-01-30T15:24:32.642Z,11.56
2018-01-30T15:27:03.410Z,11.53
2018-01-30T15:29:34.190Z,11.52
2018-01-30T15:32:06.442Z,11.49
2018-01-30T15:34:43.860Z,11.33
2018-01-30T15:37:29.517Z,11.21
2018-01-30T15:40:04.534Z,11.34
2018-01-30T15:42:36.590Z,11.30
2018-01-30T15:45:10.331Z,11.35
2018-01-30T15:47:55.568Z,11.24
2018-01-30T15:50:31.904Z,11.11
2018-01-30T15:53:02.965Z,10.95
2018-01-30T15:55:35.077Z,10.93
2018-01-30T15:58:07.802Z,10.75
2018-01-30T16:00:46.660Z,10.88
2018-01-30T16:03:18.058Z,10.57
2018-01-30T16:05:48.775Z,10.67
2018-01-30T16:08:22.842Z,10.62
2018-01-30T16:10:55.882Z,10.61
2018-01-30T16:13:28.561Z,10.49
2018-01-30T16:16:01.549Z,10.63
2018-01-30T16:18:43.034Z,10.63
2018-01-30T16:21:16.881Z,10.70
2018-01-30T16:23:50.726Z,10.76
2018-01-30T16:26:23.783Z,10.54
2018-01-30T16:28:57.931Z,10.30
2018-01-30T16:31:32.020Z,10.27
2018-01-30T16:34:06.836Z,9.95
2018-01-30T16:36:44.235Z,10.14
2018-01-30T16:39:25.825Z,10.32
2018-01-30T16:41:56.625Z,10.45
2018-01-30T16:44:41.631Z,10.50
2018-01-30T16:47:13.013Z,10.55
2018-01-30T16:49:47.424Z,10.50
2018-01-30T16:55:05.394Z,10.45
2018-01-30T16:57:38.876Z,10.46
2018-01-30T17:00:41.750Z,10.40
2018-01-30T17:03:19.667Z,10.24
2018-01-30T17:05:54.061Z,10.10
2018-01-30T17:08:45.796Z,10.06
2018-01-30T17:11:17.023Z,10.01
2018-01-30T17:13:48.831Z,9.98
2018-01-30T17:16:23.927Z,9.80
2018-01-30T17:19:00.895Z,9.85
2018-01-30T17:21:36.801Z,9.96
2018-01-30T17:24:08.626Z,10.06
2018-01-30T17:26:46.080Z,10.08
2018-01-30T17:29:17.486Z,10.17
2018-01-30T17:31:58.578Z,10.24
2018-01-30T17:34:34.252Z,10.24
2018-01-30T17:37:10.624Z,10.10
2018-01-30T17:39:43.331Z,9.98
2018-01-30T17:42:13.977Z,9.93
2018-01-30T17:45:25.424Z,9.96
2018-01-30T17:47:58.618Z,9.70
2018-01-30T17:50:37.377Z,9.55
2018-01-30T17:53:16.224Z,9.58
2018-01-30T17:56:10.045Z,9.50
2018-01-30T17:58:50.761Z,9.05
2018-01-30T18:01:37.764Z,9.27
2018-01-30T18:04:12.503Z,9.39
2018-01-30T18:06:56.376Z,9.35
2018-01-30T18:10:26.653Z,9.33
2018-01-30T18:13:05.949Z,9.19
2018-01-30T18:15:45.062Z,9.20
2018-01-30T18:21:35.711Z,9.21
2018-01-30T18:24:14.124Z,9.68
2018-01-30T18:29:35.733Z,9.95
2018-01-30T18:32:22.789Z,9.76
2018-01-30T18:35:01.780Z,9.54
2018-01-30T18:40:42.456Z,9.41
2018-01-30T18:43:33.881Z,9.65
2018-01-30T18:46:11.516Z,9.71
2018-01-30T18:54:34.538Z,9.89
2018-01-30T18:57:06.697Z,9.89
2018-01-30T18:59:38.418Z,9.89
2018-01-30T19:02:10.768Z,9.91
2018-01-30T19:04:42.003Z,9.77
2018-01-30T19:07:12.599Z,9.70
2018-01-30T19:09:44.256Z,9.73
2018-01-30T19:12:25.014Z,9.79
2018-01-30T19:14:56.971Z,9.85
2018-01-30T19:17:27.509Z,9.89
2018-01-30T19:20:00.150Z,9.87
2018-01-30T19:22:33.304Z,9.82
2018-01-30T19:25:04.791Z,9.88
2018-01-30T19:27:38.585Z,9.66
2018-01-30T19:30:13.809Z,9.75
2018-01-30T19:32:46.343Z,9.85
2018-01-30T19:38:00.023Z,9.96
2018-01-30T19:40:31.205Z,9.94
2018-01-30T19:43:02.699Z,9.82
2018-01-30T19:45:33.555Z,9.70
2018-01-30T19:48:06.060Z,9.67
2018-01-30T19:50:37.839Z,9.62
2018-01-30T19:53:08.743Z,9.73
2018-01-30T19:55:39.447Z,9.51
2018-01-30T19:58:11.251Z,9.46
2018-01-30T20:00:44.994Z,9.35
2018-01-30T20:03:18.177Z,9.04
2018-01-30T20:08:27.149Z,8.76
2018-01-30T20:10:59.660Z,8.79
2018-01-30T20:13:31.391Z,8.95
2018-01-30T20:16:09.067Z,8.99
2018-01-30T20:18:40.472Z,9.11
2018-01-30T20:21:13.416Z,8.99
2018-01-30T20:23:45.532Z,9.11
2018-01-30T20:26:20.043Z,9.21
2018-01-30T20:28:55.737Z,9.19
2018-01-30T20:31:28.346Z,9.19
2018-01-30T20:33:59.863Z,9.24
2018-01-30T20:36:31.239Z,9.24
2018-01-30T20:39:03.314Z,9.07
2018-01-30T20:41:34.046Z,9.17
2018-01-30T20:44:05.601Z,9.22
2018-01-30T20:46:36.499Z,9.25
2018-01-30T20:49:07.799Z,9.16
2018-01-30T20:51:39.217Z,9.18
2018-01-30T20:54:15.109Z,9.22
2018-01-30T20:56:49.753Z,9.20
2018-01-30T20:59:27.676Z,9.02
2018-01-30T21:01:59.905Z,9.13
2018-01-30T21:04:30.887Z,9.12
2018-01-30T21:07:03.613Z,9.01
2018-01-30T21:09:34.801Z,9.10
2018-01-30T21:12:06.878Z,9.14
2018-01-30T21:14:38.364Z,9.16
2018-01-30T21:17:13.505Z,9.20
2018-01-30T21:19:44.676Z,9.32
2018-01-30T21:22:15.495Z,9.35
2018-01-30T21:24:56.802Z,9.32
2018-01-30T21:27:28.915Z,9.24
2018-01-30T21:30:00.260Z,9.22
2018-01-30T21:32:33.195Z,9.30
2018-01-30T21:35:05.163Z,9.36
2018-01-30T21:37:35.840Z,9.41
2018-01-30T21:40:08.586Z,9.51
2018-01-30T21:42:39.790Z,9.46
2018-01-30T21:45:19.626Z,9.57
2018-01-30T21:47:51.457Z,9.66
2018-01-30T21:50:22.471Z,9.57
2018-01-30T21:52:53.502Z,9.64
2018-01-30T21:55:24.506Z,9.60
2018-01-30T21:57:55.772Z,9.51
2018-01-30T22:00:27.145Z,9.61
2018-01-30T22:02:58.488Z,9.70
2018-01-30T22:05:28.973Z,9.77
2018-01-30T22:07:59.736Z,9.72
2018-01-30T22:10:31.317Z,9.92
2018-01-30T22:13:01.915Z,9.87
2018-01-30T22:15:32.838Z,9.78
2018-01-30T22:18:03.369Z,9.74
2018-01-30T22:20:34.624Z,9.93
2018-01-30T22:23:12.531Z,9.86
2018-01-30T22:25:43.045Z,10.00
2018-01-30T22:28:14.086Z,10.09
2018-01-30T22:30:45.031Z,10.14
2018-01-30T22:33:15.711Z,10.06
2018-01-30T22:35:46.919Z,10.04
2018-01-30T22:38:17.492Z,9.63
2018-01-30T22:40:48.606Z,9.63
2018-01-30T22:43:19.494Z,9.68
2018-01-30T22:45:50.850Z,8.91
